Time;durP1;ratioP1;P1;durP2;ratioP2;P2;SDS_P1;SDS_P2;PMS_P1;PMS_P2;Temp;Humidity;BMP_temperature;BMP_pressure;BME280_temperature;BME280_humidity;BME280_pressure;Samples;Min_cycle;Max_cycle;Signal;HPM_P1;HPM_P2
2023/08/29 00:01:55;;;;;;;2.50;2.30;;;;;;;14.23;100.00;99602.20;178692;1260;46023;-81
2023/08/29 00:06:05;;;;;;;4.80;2.20;;;;;;;14.24;100.00;99597.30;178516;1264;46129;-83
2023/08/29 00:10:08;;;;;;;3.60;2.60;;;;;;;14.27;100.00;99590.52;179588;1261;44159;-83
2023/08/29 00:14:11;;;;;;;7.80;2.40;;;;;;;14.30;100.00;99579.75;178715;1260;45983;-83
2023/08/29 00:18:14;;;;;;;3.30;2.60;;;;;;;14.29;100.00;99564.11;178612;1260;59630;-82
2023/08/29 00:22:17;;;;;;;4.00;2.20;;;;;;;14.23;100.00;99550.36;176936;1262;46095;-81
2023/08/29 00:26:20;;;;;;;2.10;1.90;;;;;;;14.16;100.00;99563.11;178190;1260;46026;-81
2023/08/29 00:30:24;;;;;;;5.30;2.10;;;;;;;14.18;100.00;99556.39;177094;1261;44851;-81
2023/08/29 00:34:27;;;;;;;2.80;2.20;;;;;;;14.20;100.00;99549.36;178372;1260;44254;-80
2023/08/29 00:38:30;;;;;;;3.00;2.30;;;;;;;14.21;100.00;99551.61;177950;1260;59832;-81
2023/08/29 00:42:33;;;;;;;3.40;1.50;;;;;;;14.26;100.00;99555.72;178104;1261;46037;-82
2023/08/29 00:46:36;;;;;;;2.30;1.70;;;;;;;14.28;100.00;99555.54;177966;1261;46250;-82
2023/08/29 00:50:40;;;;;;;3.70;2.10;;;;;;;14.32;100.00;99561.33;178199;1265;45984;-81
2023/08/29 00:54:44;;;;;;;3.90;2.10;;;;;;;14.39;100.00;99578.74;177902;1266;46140;-81
2023/08/29 00:58:47;;;;;;;4.40;2.60;;;;;;;14.47;100.00;99590.52;177704;1260;58244;-81
2023/08/29 01:02:50;;;;;;;5.00;2.40;;;;;;;14.59;100.00;99567.09;178235;1261;46214;-82
2023/08/29 01:06:55;;;;;;;2.80;2.60;;;;;;;14.64;100.00;99576.16;179052;1261;46008;-82
2023/08/29 01:11:09;;;;;;;4.90;2.20;;;;;;;14.67;100.00;99573.73;178517;1261;44852;-81
2023/08/29 01:15:21;;;;;;;4.30;2.90;;;;;;;14.65;100.00;99560.80;177457;1260;46011;-81
2023/08/29 01:19:25;;;;;;;3.00;2.10;;;;;;;14.61;100.00;99540.09;177690;1264;58502;-81
2023/08/29 01:23:34;;;;;;;6.10;3.30;;;;;;;14.56;100.00;99536.05;177374;1260;46032;-81
2023/08/29 01:27:38;;;;;;;3.50;2.70;;;;;;;14.60;100.00;99540.59;178384;1260;45926;-82
2023/08/29 01:31:41;;;;;;;4.20;3.40;;;;;;;14.66;100.00;99516.22;177136;1260;46106;-81
2023/08/29 01:35:46;;;;;;;3.80;3.50;;;;;;;14.70;100.00;99499.81;178877;1261;46046;-85
2023/08/29 01:39:50;;;;;;;3.30;3.00;;;;;;;14.69;100.00;99477.30;178591;1260;61092;-88
2023/08/29 01:43:53;;;;;;;6.00;4.00;;;;;;;14.60;100.00;99440.29;179956;1260;44188;-91
2023/08/29 01:47:57;;;;;;;4.20;3.80;;;;;;;14.47;100.00;99374.68;179713;1260;46066;-86
2023/08/29 01:52:03;;;;;;;3.00;2.70;;;;;;;14.31;100.00;99330.98;179836;1261;55895;-86
2023/08/29 01:56:09;;;;;;;4.70;4.20;;;;;;;14.22;100.00;99294.02;178612;1261;44744;-86
2023/08/29 02:00:13;;;;;;;4.00;3.70;;;;;;;14.12;100.00;99235.00;178859;1260;58234;-82
2023/08/29 02:04:16;;;;;;;5.00;4.60;;;;;;;14.12;100.00;99268.23;178659;1260;46030;-81
2023/08/29 02:08:19;;;;;;;3.90;3.60;;;;;;;14.20;100.00;99303.04;178227;1260;46115;-81
2023/08/29 02:12:22;;;;;;;5.00;4.50;;;;;;;14.26;100.00;99327.08;178689;1260;48546;-80
2023/08/29 02:16:25;;;;;;;7.30;6.60;;;;;;;14.34;100.00;99328.65;178512;1261;46667;-81
2023/08/29 02:20:28;;;;;;;7.60;6.60;;;;;;;14.42;100.00;99316.77;178005;1261;59526;-81
2023/08/29 02:24:32;;;;;;;6.20;5.60;;;;;;;14.44;100.00;99316.05;178323;1261;46094;-81
2023/08/29 02:28:36;;;;;;;7.30;6.60;;;;;;;14.41;100.00;99320.40;177807;1260;45981;-82
2023/08/29 02:32:40;;;;;;;7.30;6.70;;;;;;;14.49;100.00;99311.16;177230;1264;46107;-81
2023/08/29 02:36:43;;;;;;;8.30;7.40;;;;;;;14.46;100.00;99287.39;178671;1260;46082;-82
2023/08/29 02:40:46;;;;;;;7.00;6.40;;;;;;;14.40;100.00;99246.70;178662;1260;59020;-83
2023/08/29 02:44:50;;;;;;;7.30;6.00;;;;;;;14.40;100.00;99265.96;177153;1260;46010;-83
2023/08/29 02:48:53;;;;;;;6.50;6.00;;;;;;;14.43;100.00;99287.22;176299;1261;46073;-83
2023/08/29 02:52:56;;;;;;;6.70;6.00;;;;;;;14.53;100.00;99301.08;177320;1260;44966;-83
2023/08/29 02:57:00;;;;;;;8.00;7.40;;;;;;;14.59;100.00;99297.90;178007;1261;46126;-83
2023/08/29 03:01:06;;;;;;;7.70;5.70;;;;;;;14.67;100.00;99289.52;179032;1260;61395;-85
2023/08/29 03:05:09;;;;;;;6.80;6.00;;;;;;;14.70;100.00;99265.12;178005;1260;46098;-84
2023/08/29 03:09:13;;;;;;;7.60;6.80;;;;;;;14.72;100.00;99249.73;177971;1260;45084;-85
2023/08/29 03:13:17;;;;;;;8.90;8.10;;;;;;;14.78;100.00;99243.52;178293;1260;44826;-85
2023/08/29 03:17:22;;;;;;;7.60;6.70;;;;;;;14.85;100.00;99249.82;178284;1259;46106;-84
2023/08/29 03:21:26;;;;;;;10.50;8.50;;;;;;;14.96;100.00;99258.83;177565;1260;59569;-86
2023/08/29 03:25:29;;;;;;;11.90;7.20;;;;;;;15.08;100.00;99249.27;177847;1261;46155;-85
2023/08/29 03:29:33;;;;;;;7.60;6.90;;;;;;;15.18;100.00;99243.45;178330;1260;44828;-85
2023/08/29 03:33:37;;;;;;;6.60;6.00;;;;;;;15.23;100.00;99243.20;179233;1260;44060;-86
2023/08/29 03:37:41;;;;;;;9.10;8.20;;;;;;;15.21;100.00;99231.33;177852;1260;46117;-86
2023/08/29 03:41:44;;;;;;;7.60;6.90;;;;;;;15.18;100.00;99218.50;177716;1260;59926;-86
2023/08/29 03:45:56;;;;;;;10.00;6.80;;;;;;;15.18;100.00;99239.94;178387;1262;46048;-87
2023/08/29 03:50:00;;;;;;;7.00;6.20;;;;;;;15.15;100.00;99233.95;179695;1260;44018;-87
2023/08/29 03:54:04;;;;;;;7.10;5.70;;;;;;;15.09;100.00;99226.19;178949;1260;46671;-87
2023/08/29 03:58:07;;;;;;;7.60;7.00;;;;;;;15.05;100.00;99229.84;179904;1260;44007;-87
2023/08/29 04:02:11;;;;;;;6.90;6.20;;;;;;;15.07;100.00;99222.48;178827;1260;60845;-87
2023/08/29 04:06:19;;;;;;;6.90;6.30;;;;;;;15.08;100.00;99216.11;177774;1260;44066;-88
2023/08/29 04:10:22;;;;;;;5.10;4.60;;;;;;;15.10;100.00;99207.98;177530;1261;46125;-88
2023/08/29 04:14:25;;;;;;;7.00;6.30;;;;;;;15.12;100.00;99206.33;178063;1260;46128;-88
2023/08/29 04:18:32;;;;;;;6.70;5.90;;;;;;;15.16;100.00;99231.73;177645;1263;46147;-88
2023/08/29 04:22:36;;;;;;;7.90;6.00;;;;;;;15.23;100.00;99233.11;177607;1260;57960;-89
2023/08/29 04:26:39;;;;;;;7.00;6.10;;;;;;;15.27;100.00;99227.91;177673;1261;46093;-86
2023/08/29 04:30:42;;;;;;;6.70;6.10;;;;;;;15.20;100.00;99237.70;177895;1261;46101;-88
2023/08/29 04:34:46;;;;;;;6.90;6.30;;;;;;;15.16;100.00;99241.38;178222;1260;45949;-88
2023/08/29 04:38:49;;;;;;;8.20;7.40;;;;;;;15.20;100.00;99275.08;177876;1260;46096;-88
2023/08/29 04:42:53;;;;;;;11.40;10.20;;;;;;;15.23;100.00;99305.71;177821;1259;59213;-89
2023/08/29 04:46:56;;;;;;;9.00;8.00;;;;;;;15.33;100.00;99321.80;177854;1260;46162;-88
2023/08/29 04:51:00;;;;;;;8.50;7.70;;;;;;;15.35;100.00;99333.60;177444;1260;46060;-88
2023/08/29 04:55:05;;;;;;;7.80;7.00;;;;;;;15.39;100.00;99353.20;178310;1260;46023;-87
2023/08/29 04:59:08;;;;;;;8.90;7.80;;;;;;;15.40;100.00;99365.71;178835;1263;46132;-88
2023/08/29 05:03:11;;;;;;;7.70;5.40;;;;;;;15.45;100.00;99373.45;177835;1260;59261;-88
2023/08/29 05:07:15;;;;;;;11.20;5.80;;;;;;;15.51;100.00;99369.15;178475;1260;45973;-87
2023/08/29 05:11:18;;;;;;;9.40;7.30;;;;;;;15.54;100.00;99362.69;178680;1260;46007;-87
2023/08/29 05:15:21;;;;;;;6.00;5.40;;;;;;;15.61;100.00;99356.56;178280;1261;46003;-88
2023/08/29 05:19:25;;;;;;;6.70;6.10;;;;;;;15.64;100.00;99356.34;178011;1260;46132;-87
2023/08/29 05:23:29;;;;;;;7.50;6.80;;;;;;;15.66;100.00;99352.52;177837;1261;59592;-88
2023/08/29 05:27:33;;;;;;;7.50;6.90;;;;;;;15.63;100.00;99332.59;177907;1261;46040;-87
2023/08/29 05:31:37;;;;;;;7.60;6.80;;;;;;;15.50;100.00;99302.91;177438;1261;46228;-88
2023/08/29 05:35:40;;;;;;;6.20;5.70;;;;;;;15.44;100.00;99278.66;178205;1260;46118;-88
2023/08/29 05:39:44;;;;;;;9.10;8.40;;;;;;;15.41;100.00;99267.52;177705;1261;46075;-88
2023/08/29 05:43:47;;;;;;;7.50;6.80;;;;;;;15.38;100.00;99246.70;178000;1260;59283;-88
2023/08/29 05:47:51;;;;;;;7.90;7.30;;;;;;;15.25;100.00;99218.70;177778;1260;46011;-88
2023/08/29 05:51:54;;;;;;;9.60;8.80;;;;;;;15.21;100.00;99210.33;177431;1260;46086;-87
2023/08/29 05:55:58;;;;;;;9.40;8.50;;;;;;;15.15;100.00;99196.20;177660;1265;46143;-87
2023/08/29 06:00:05;;;;;;;7.90;7.20;;;;;;;15.08;100.00;99159.17;177179;1261;46101;-87
2023/08/29 06:04:08;;;;;;;13.10;9.80;;;;;;;15.05;100.00;99148.38;177870;1265;57902;-87
2023/08/29 06:08:11;;;;;;;8.80;8.00;;;;;;;15.02;100.00;99165.30;177235;1263;46071;-86
2023/08/29 06:12:22;;;;;;;11.20;10.10;;;;;;;14.99;100.00;99167.63;177171;1260;46135;-86
2023/08/29 06:16:26;;;;;;;10.80;9.80;;;;;;;15.05;100.00;99209.71;177367;1260;46179;-85
2023/08/29 06:20:31;;;;;;;10.70;9.70;;;;;;;15.07;100.00;99243.00;177635;1265;46227;-88
2023/08/29 06:24:35;;;;;;;16.30;10.80;;;;;;;15.17;100.00;99263.44;177738;1260;58437;-87
2023/08/29 06:28:38;;;;;;;12.00;10.80;;;;;;;15.28;100.00;99283.77;178100;1261;44727;-87
2023/08/29 06:32:42;;;;;;;13.20;11.90;;;;;;;15.36;100.00;99285.30;177735;1260;46006;-87
2023/08/29 06:36:45;;;;;;;12.50;11.10;;;;;;;15.48;100.00;99281.06;177399;1261;46116;-87
2023/08/29 06:40:56;;;;;;;12.50;11.30;;;;;;;15.56;100.00;99285.30;178325;1259;46138;-87
2023/08/29 06:45:00;;;;;;;10.70;9.70;;;;;;;15.57;100.00;99282.83;177107;1261;59481;-87
2023/08/29 06:49:05;;;;;;;11.00;9.90;;;;;;;15.57;100.00;99272.64;177601;1259;46132;-87
2023/08/29 06:53:09;;;;;;;9.00;8.10;;;;;;;15.60;100.00;99265.21;177826;1263;45979;-87
2023/08/29 06:57:12;;;;;;;14.10;10.10;;;;;;;15.61;100.00;99271.91;177811;1260;46153;-86
2023/08/29 07:01:16;;;;;;;14.60;10.60;;;;;;;15.66;100.00;99256.96;178000;1260;44334;-86
2023/08/29 07:05:20;;;;;;;12.90;10.70;;;;;;;15.72;100.00;99244.60;177574;1260;59307;-85
2023/08/29 07:09:27;;;;;;;12.20;11.00;;;;;;;15.74;100.00;99254.77;177773;1261;45960;-85
2023/08/29 07:13:30;;;;;;;13.40;9.90;;;;;;;15.77;100.00;99249.91;177419;1260;46189;-86
2023/08/29 07:17:34;;;;;;;11.50;10.40;;;;;;;15.79;100.00;99249.48;178088;1261;46077;-86
2023/08/29 07:21:38;;;;;;;12.20;11.10;;;;;;;15.83;100.00;99265.83;177512;1260;45972;-86
2023/08/29 07:25:45;;;;;;;11.10;10.00;;;;;;;15.88;100.00;99269.23;177749;1260;59580;-86
2023/08/29 07:29:49;;;;;;;11.40;10.40;;;;;;;15.88;100.00;99249.83;178312;1260;45979;-84
2023/08/29 07:33:52;;;;;;;12.80;11.40;;;;;;;15.90;100.00;99250.78;176993;1260;46150;-86
2023/08/29 07:37:55;;;;;;;11.40;10.20;;;;;;;15.93;100.00;99259.83;177611;1261;46118;-86
2023/08/29 07:41:59;;;;;;;13.00;11.50;;;;;;;15.97;100.00;99267.27;177829;1260;44604;-86
2023/08/29 07:46:03;;;;;;;13.00;11.10;;;;;;;16.04;100.00;99257.23;177518;1259;59665;-85
2023/08/29 07:50:06;;;;;;;13.70;12.40;;;;;;;16.09;100.00;99250.21;177366;1260;46018;-85
2023/08/29 07:54:10;;;;;;;11.90;10.60;;;;;;;16.14;100.00;99254.63;177361;1262;46225;-85
2023/08/29 07:58:13;;;;;;;14.30;12.80;;;;;;;16.20;100.00;99246.35;177375;1260;45138;-85
2023/08/29 08:02:16;;;;;;;14.40;12.50;;;;;;;16.27;100.00;99268.11;177548;1260;46011;-85
2023/08/29 08:06:20;;;;;;;14.50;12.10;;;;;;;16.34;100.00;99284.01;179562;1260;58024;-83
2023/08/29 08:10:23;;;;;;;12.00;10.80;;;;;;;16.41;100.00;99298.88;177574;1260;45437;-83
2023/08/29 08:14:26;;;;;;;12.00;10.80;;;;;;;16.43;100.00;99302.69;177459;1264;45921;-82
2023/08/29 08:18:30;;;;;;;14.30;11.70;;;;;;;16.42;100.00;99306.81;177307;1260;46004;-82
2023/08/29 08:22:34;;;;;;;11.60;10.70;;;;;;;16.45;100.00;99309.44;177132;1261;46212;-82
2023/08/29 08:26:37;;;;;;;13.00;10.60;;;;;;;16.46;100.00;99314.98;178644;1260;59578;-82
2023/08/29 08:30:41;;;;;;;14.10;12.80;;;;;;;16.50;100.00;99311.98;178155;1261;46039;-82
2023/08/29 08:34:44;;;;;;;12.20;11.00;;;;;;;16.51;100.00;99292.75;177824;1259;46060;-82
2023/08/29 08:38:47;;;;;;;9.90;8.90;;;;;;;16.53;100.00;99283.02;177148;1261;46587;-81
2023/08/29 08:42:51;;;;;;;12.40;9.60;;;;;;;16.52;100.00;99268.77;177447;1262;45915;-83
2023/08/29 08:46:54;;;;;;;12.20;11.10;;;;;;;16.55;100.00;99257.55;177948;1261;59749;-82
2023/08/29 08:50:58;;;;;;;11.70;10.60;;;;;;;16.65;100.00;99264.42;177796;1260;46072;-82
2023/08/29 08:55:02;;;;;;;12.80;11.50;;;;;;;16.67;100.00;99265.83;177383;1260;46124;-82
2023/08/29 08:59:05;;;;;;;13.60;12.00;;;;;;;16.65;100.00;99268.73;177826;1260;46188;-82
2023/08/29 09:03:09;;;;;;;12.10;10.90;;;;;;;16.60;100.00;99274.14;177537;1261;45950;-83
2023/08/29 09:07:13;;;;;;;14.20;10.40;;;;;;;16.58;100.00;99286.74;178223;1260;59669;-82
2023/08/29 09:11:19;;;;;;;13.20;10.50;;;;;;;16.56;100.00;99301.26;178154;1262;46209;-82
2023/08/29 09:15:26;;;;;;;9.90;8.90;;;;;;;16.58;100.00;99311.77;178195;1260;46050;-82
2023/08/29 09:19:33;;;;;;;15.50;12.70;;;;;;;16.62;100.00;99323.63;177726;1261;46128;-81
2023/08/29 09:23:37;;;;;;;11.30;10.30;;;;;;;16.66;100.00;99308.81;178250;1261;46113;-82
2023/08/29 09:27:47;;;;;;;12.30;11.10;;;;;;;16.72;100.00;99309.50;176953;1264;58224;-82
2023/08/29 09:31:50;;;;;;;12.40;11.20;;;;;;;16.84;100.00;99302.27;177320;1260;46023;-81
2023/08/29 09:35:53;;;;;;;17.20;13.10;;;;;;;17.00;100.00;99294.99;177570;1260;44738;-81
2023/08/29 09:39:57;;;;;;;11.30;10.10;;;;;;;17.12;100.00;99285.98;178016;1260;238307;-81
2023/08/29 09:44:00;;;;;;;12.10;10.80;;;;;;;17.07;100.00;99281.92;177934;1261;45995;-81
2023/08/29 09:48:08;;;;;;;11.30;9.30;;;;;;;17.05;100.00;99278.94;177548;1262;58249;-81
2023/08/29 09:52:14;;;;;;;14.90;11.30;;;;;;;17.03;100.00;99279.42;177652;1261;45215;-81
2023/08/29 09:56:19;;;;;;;12.20;10.90;;;;;;;17.07;100.00;99275.73;177666;1261;46564;-80
2023/08/29 10:00:22;;;;;;;11.70;10.10;;;;;;;17.12;100.00;99268.71;177837;1260;46009;-81
2023/08/29 10:04:29;;;;;;;15.30;13.20;;;;;;;17.16;100.00;99251.67;178443;1262;46128;-80
2023/08/29 10:08:46;;;;;;;11.00;9.90;;;;;;;17.18;100.00;99264.51;178143;1261;59409;-80
2023/08/29 10:12:50;;;;;;;16.00;12.20;;;;;;;17.11;100.00;99263.86;178514;1261;46127;-80
2023/08/29 10:16:55;;;;;;;11.90;10.70;;;;;;;17.12;100.00;99268.05;178122;1262;46103;-80
2023/08/29 10:21:00;;;;;;;14.00;12.00;;;;;;;17.15;100.00;99267.13;177501;1261;46026;-80
2023/08/29 10:25:06;;;;;;;13.00;10.80;;;;;;;17.25;100.00;99285.39;178092;1261;44371;-80
2023/08/29 10:29:10;;;;;;;16.90;9.50;;;;;;;17.29;100.00;99293.90;178158;1260;59505;-80
2023/08/29 10:33:13;;;;;;;12.60;9.20;;;;;;;17.16;100.00;99287.27;177290;1265;46129;-80
2023/08/29 10:37:18;;;;;;;12.00;8.20;;;;;;;17.05;100.00;99279.27;177510;1260;46006;-80
2023/08/29 10:41:21;;;;;;;14.10;8.70;;;;;;;16.95;100.00;99277.47;177836;1262;46048;-80
2023/08/29 10:45:50;;;;;;;10.40;9.30;;;;;;;16.90;100.00;99282.91;177028;1260;45983;-80
2023/08/29 10:49:57;;;;;;;10.30;9.10;;;;;;;16.83;100.00;99285.07;177356;1263;59541;-80
2023/08/29 10:54:06;;;;;;;15.90;10.00;;;;;;;16.84;100.00;99277.02;177603;1260;47597;-81
2023/08/29 10:58:33;;;;;;;11.50;8.60;;;;;;;16.80;100.00;99268.35;177976;1260;46743;-80
2023/08/29 11:02:41;;;;;;;9.90;8.90;;;;;;;16.76;100.00;99262.45;177466;1261;46127;-80
2023/08/29 11:06:53;;;;;;;13.00;10.30;;;;;;;16.78;100.00;99253.08;178154;1260;46224;-80
2023/08/29 11:11:18;;;;;;;9.30;8.30;;;;;;;16.83;100.00;99260.69;176599;1260;58207;-80
2023/08/29 11:15:22;;;;;;;8.80;7.90;;;;;;;16.85;100.00;99283.05;177243;1260;46101;-80
2023/08/29 11:19:25;;;;;;;10.30;9.20;;;;;;;16.89;100.00;99292.70;177979;1259;46173;-79
2023/08/29 11:23:33;;;;;;;8.80;6.60;;;;;;;16.98;100.00;99293.75;178454;1261;44765;-80
2023/08/29 11:27:38;;;;;;;9.80;8.00;;;;;;;17.05;100.00;99296.14;177266;1262;46001;-80
2023/08/29 11:31:42;;;;;;;11.20;10.00;;;;;;;17.16;100.00;99287.05;177523;1260;59459;-80
2023/08/29 11:35:46;;;;;;;10.60;9.20;;;;;;;17.28;100.00;99271.27;178517;1260;46032;-79
2023/08/29 11:39:53;;;;;;;11.50;10.40;;;;;;;17.37;100.00;99267.51;178786;1261;44175;-79
2023/08/29 11:43:57;;;;;;;11.00;9.20;;;;;;;17.40;100.00;99270.09;177509;1261;45506;-79
2023/08/29 11:48:25;;;;;;;10.70;8.60;;;;;;;17.41;100.00;99269.96;178487;1261;46003;-79
2023/08/29 11:52:28;;;;;;;9.80;8.80;;;;;;;17.38;100.00;99282.77;177917;1259;59543;-79
2023/08/29 11:56:31;;;;;;;12.30;8.30;;;;;;;17.38;100.00;99282.77;177850;1262;46153;-79
2023/08/29 12:00:35;;;;;;;9.40;8.60;;;;;;;17.43;100.00;99291.44;177642;1261;46044;-78
2023/08/29 12:04:42;;;;;;;8.80;8.00;;;;;;;17.53;100.00;99311.50;178313;1261;46023;-78
2023/08/29 12:08:46;;;;;;;8.30;7.30;;;;;;;17.48;100.00;99309.85;177756;1261;44026;-79
2023/08/29 12:12:49;;;;;;;6.80;6.10;;;;;;;17.40;100.00;99302.04;177849;1262;60567;-79
2023/08/29 12:16:53;;;;;;;9.60;8.60;;;;;;;17.31;100.00;99295.20;177955;1263;44759;-79
2023/08/29 12:21:18;;;;;;;9.70;8.70;;;;;;;17.26;100.00;99293.55;178284;1261;46111;-78
2023/08/29 12:25:21;;;;;;;10.30;9.40;;;;;;;17.28;100.00;99295.13;177875;1263;46073;-78
2023/08/29 12:29:24;;;;;;;9.20;8.40;;;;;;;17.35;100.00;99294.56;178447;1261;46010;-79
2023/08/29 12:33:27;;;;;;;7.10;6.40;;;;;;;17.29;100.00;99296.19;178162;1262;59552;-79
2023/08/29 12:37:31;;;;;;;10.10;9.10;;;;;;;17.28;100.00;99299.89;178624;1262;45985;-79
2023/08/29 12:41:36;;;;;;;7.60;6.90;;;;;;;17.30;100.00;99305.19;179408;1262;44429;-78
2023/08/29 12:45:39;;;;;;;10.20;9.10;;;;;;;17.19;100.00;99303.95;178328;1259;46076;-79
2023/08/29 12:49:58;;;;;;;9.20;8.30;;;;;;;17.11;100.00;99293.43;178321;1262;46014;-79
2023/08/29 12:54:02;;;;;;;9.70;8.60;;;;;;;17.05;100.00;99279.52;178023;1261;59499;-78
2023/08/29 12:58:06;;;;;;;14.30;10.20;;;;;;;17.08;100.00;99289.92;177518;1261;46118;-79
2023/08/29 13:02:09;;;;;;;12.00;9.60;;;;;;;17.15;100.00;99303.67;177563;1265;46055;-79
2023/08/29 13:06:13;;;;;;;12.70;10.40;;;;;;;17.19;100.00;99305.65;178131;1262;46022;-78
2023/08/29 13:10:16;;;;;;;12.70;11.30;;;;;;;17.19;100.00;99308.58;177318;1262;46097;-79
2023/08/29 13:14:19;;;;;;;12.40;11.20;;;;;;;17.25;100.00;99297.09;177528;1265;58268;-79
2023/08/29 13:18:23;;;;;;;11.20;9.90;;;;;;;17.39;100.00;99296.75;179913;1263;46223;-79
2023/08/29 13:22:26;;;;;;;15.50;11.90;;;;;;;17.53;100.00;99298.59;178288;1261;46024;-79
2023/08/29 13:26:29;;;;;;;12.70;11.30;;;;;;;17.68;100.00;99300.47;178501;1261;46012;-78
2023/08/29 13:30:32;;;;;;;12.40;11.20;;;;;;;17.79;100.00;99305.02;180300;1261;46016;-79
2023/08/29 13:34:36;;;;;;;11.40;10.20;;;;;;;17.87;100.00;99301.25;179624;1261;60429;-79
2023/08/29 13:38:39;;;;;;;12.10;10.80;;;;;;;17.71;100.00;99295.91;178913;1261;45978;-79
2023/08/29 13:42:42;;;;;;;11.30;9.80;;;;;;;17.62;100.00;99299.81;180342;1261;43986;-79
2023/08/29 13:46:45;;;;;;;13.10;10.40;;;;;;;17.51;100.00;99297.41;180264;1262;44319;-79
2023/08/29 13:50:48;;;;;;;7.90;7.00;;;;;;;17.30;100.00;99289.98;179353;1261;46020;-79
2023/08/29 13:54:51;;;;;;;12.10;7.30;;;;;;;17.15;100.00;99285.80;179639;1259;58676;-79
2023/08/29 13:58:56;;;;;;;8.80;7.40;;;;;;;17.02;100.00;99281.88;178632;1259;46010;-79
2023/08/29 14:03:00;;;;;;;9.10;8.30;;;;;;;16.98;100.00;99284.52;178945;1261;44229;-78
2023/08/29 14:07:03;;;;;;;8.20;7.00;;;;;;;16.89;100.00;99278.94;179881;1260;46050;-79
2023/08/29 14:11:07;;;;;;;10.90;9.90;;;;;;;16.83;100.00;99269.31;178874;1261;44160;-79
2023/08/29 14:15:10;;;;;;;8.40;7.60;;;;;;;16.89;100.00;99270.29;178443;1260;56934;-79
2023/08/29 14:19:13;;;;;;;8.80;7.90;;;;;;;16.97;100.00;99273.14;177966;1262;46040;-79
2023/08/29 14:23:16;;;;;;;9.30;7.20;;;;;;;16.94;100.00;99275.84;179020;1263;44064;-79
2023/08/29 14:27:19;;;;;;;8.90;8.00;;;;;;;16.90;100.00;99277.36;178800;1261;44012;-79
2023/08/29 14:31:23;;;;;;;11.30;9.80;;;;;;;16.90;100.00;99278.27;178740;1261;44623;-78
2023/08/29 14:35:27;;;;;;;9.70;8.10;;;;;;;16.98;100.00;99283.38;179286;1262;59163;-78
2023/08/29 14:39:30;;;;;;;9.60;8.70;;;;;;;16.99;100.00;99293.59;179219;1261;46188;-78
2023/08/29 14:43:34;;;;;;;11.50;10.40;;;;;;;16.95;100.00;99294.13;179624;1262;45949;-79
2023/08/29 14:47:38;;;;;;;9.70;8.90;;;;;;;16.92;100.00;99297.19;179934;1260;44501;-79
2023/08/29 14:51:41;;;;;;;9.30;8.30;;;;;;;16.96;100.00;99302.80;179198;1260;50857;-79
2023/08/29 14:55:44;;;;;;;12.90;8.90;;;;;;;16.96;100.00;99299.25;179444;1263;60582;-79
2023/08/29 14:59:47;;;;;;;11.70;10.60;;;;;;;17.07;100.00;99306.81;178933;1259;46542;-79
2023/08/29 15:03:50;;;;;;;17.80;12.50;;;;;;;17.18;100.00;99305.97;177439;1265;46131;-77
2023/08/29 15:07:53;;;;;;;12.40;11.20;;;;;;;17.30;100.00;99298.71;178799;1264;44710;-79
2023/08/29 15:11:56;;;;;;;12.70;10.70;;;;;;;17.44;100.00;99291.70;178562;1261;46182;-79
2023/08/29 15:16:01;;;;;;;11.30;10.20;;;;;;;17.53;100.00;99290.45;178440;1263;58229;-80
2023/08/29 15:20:09;;;;;;;13.10;11.80;;;;;;;17.59;100.00;99298.71;178212;1261;46140;-80
2023/08/29 15:24:13;;;;;;;11.50;9.50;;;;;;;17.58;100.00;99297.93;177698;1265;46008;-80
2023/08/29 15:28:16;;;;;;;12.40;11.10;;;;;;;17.61;100.00;99297.06;177598;1265;46132;-80
2023/08/29 15:32:19;;;;;;;10.90;9.10;;;;;;;17.68;100.00;99295.27;179393;1260;44739;-80
2023/08/29 15:36:25;;;;;;;14.60;11.60;;;;;;;17.68;100.00;99300.14;178643;1261;58214;-80
2023/08/29 15:40:28;;;;;;;13.00;11.60;;;;;;;17.66;100.00;99297.43;178562;1260;44673;-80
2023/08/29 15:44:36;;;;;;;12.60;11.40;;;;;;;17.69;100.00;99291.35;177744;1262;46850;-81
2023/08/29 15:48:39;;;;;;;12.30;10.70;;;;;;;17.67;100.00;99288.14;177940;1260;46423;-81
2023/08/29 15:52:42;;;;;;;11.00;9.90;;;;;;;17.55;100.00;99284.55;178947;1261;44132;-80
2023/08/29 15:56:46;;;;;;;11.40;8.80;;;;;;;17.30;100.00;99277.41;178986;1265;59425;-80
2023/08/29 16:00:49;;;;;;;10.00;7.60;;;;;;;17.08;100.00;99268.80;177646;1262;46236;-79
2023/08/29 16:04:53;;;;;;;10.40;7.90;;;;;;;16.89;100.00;99268.89;177511;1263;45970;-80
2023/08/29 16:08:56;;;;;;;10.70;7.50;;;;;;;16.90;100.00;99275.76;178299;1263;46123;-79
2023/08/29 16:13:03;;;;;;;9.30;8.40;;;;;;;16.94;100.00;99275.42;178836;1261;44086;-80
2023/08/29 16:17:06;;;;;;;9.00;7.70;;;;;;;17.07;100.00;99279.95;179006;1262;59701;-79
2023/08/29 16:21:09;;;;;;;10.50;7.80;;;;;;;17.20;100.00;99279.48;178242;1261;45923;-81
2023/08/29 16:25:14;;;;;;;10.00;7.90;;;;;;;17.22;100.00;99273.45;178672;1264;46085;-81
2023/08/29 16:29:17;;;;;;;11.20;8.10;;;;;;;17.30;100.00;99279.98;178588;1262;45848;-80
2023/08/29 16:33:20;;;;;;;7.70;6.90;;;;;;;17.38;100.00;99275.98;178569;1261;45973;-79
2023/08/29 16:37:23;;;;;;;7.10;6.50;;;;;;;17.38;100.00;99271.05;178355;1265;58023;-80
2023/08/29 16:41:26;;;;;;;7.10;6.20;;;;;;;17.41;100.00;99276.05;178435;1262;46047;-80
2023/08/29 16:45:29;;;;;;;6.90;6.30;;;;;;;17.35;100.00;99278.32;179466;1261;43823;-79
2023/08/29 16:49:33;;;;;;;8.40;6.40;;;;;;;17.27;100.00;99279.05;178820;1265;46167;-78
2023/08/29 16:53:36;;;;;;;6.80;6.20;;;;;;;17.23;100.00;99276.29;179091;1265;44144;-80
2023/08/29 16:57:39;;;;;;;6.60;6.00;;;;;;;17.20;100.00;99279.64;178215;1264;58319;-80
2023/08/29 17:01:42;;;;;;;4.90;3.90;;;;;;;17.17;100.00;99289.42;178845;1261;43987;-79
2023/08/29 17:05:45;;;;;;;7.00;6.10;;;;;;;17.04;100.00;99274.45;179011;1266;45969;-80
2023/08/29 17:09:48;;;;;;;9.90;6.00;;;;;;;17.00;100.00;99290.66;179034;1262;46018;-80
2023/08/29 17:13:51;;;;;;;10.10;6.00;;;;;;;17.11;100.00;99303.14;180051;1265;46141;-79
2023/08/29 17:17:55;;;;;;;5.50;5.00;;;;;;;17.17;100.00;99288.42;178732;1261;59106;-79
2023/08/29 17:21:59;;;;;;;5.80;5.30;;;;;;;17.13;100.00;99281.40;178356;1264;46021;-78
2023/08/29 17:26:03;;;;;;;6.40;5.70;;;;;;;17.20;100.00;99283.75;177624;1263;46153;-79
2023/08/29 17:30:07;;;;;;;7.10;6.30;;;;;;;17.30;100.00;99293.63;177564;1261;46059;-81
2023/08/29 17:34:10;;;;;;;6.40;5.70;;;;;;;17.41;100.00;99301.60;177232;1262;46120;-82
2023/08/29 17:38:13;;;;;;;11.60;5.20;;;;;;;17.46;100.00;99310.23;178499;1261;59442;-82
2023/08/29 17:42:17;;;;;;;8.50;6.90;;;;;;;17.49;100.00;99317.35;177971;1261;46103;-81
2023/08/29 17:46:20;;;;;;;8.20;4.90;;;;;;;17.52;100.00;99320.98;179353;1265;43606;-81
2023/08/29 17:50:23;;;;;;;6.90;6.30;;;;;;;17.51;100.00;99321.05;178292;1260;45992;-81
2023/08/29 17:54:26;;;;;;;5.40;5.00;;;;;;;17.53;100.00;99330.28;178573;1260;45977;-81
2023/08/29 17:58:29;;;;;;;5.10;4.50;;;;;;;17.53;100.00;99332.23;178323;1260;57521;-82
2023/08/29 18:02:33;;;;;;;8.20;5.30;;;;;;;17.50;100.00;99336.83;178187;1265;46701;-81
2023/08/29 18:06:37;;;;;;;7.30;5.30;;;;;;;17.49;100.00;99329.34;178920;1261;44645;-82
2023/08/29 18:10:40;;;;;;;6.00;5.40;;;;;;;17.52;100.00;99328.33;178419;1266;46134;-81
2023/08/29 18:14:43;;;;;;;5.40;5.00;;;;;;;17.51;100.00;99327.21;177547;1265;46247;-82
2023/08/29 18:18:46;;;;;;;6.10;4.90;;;;;;;17.50;100.00;99329.40;177972;1261;59373;-82
2023/08/29 18:22:51;;;;;;;6.50;5.60;;;;;;;17.48;100.00;99331.84;178593;1260;45922;-82
2023/08/29 18:26:55;;;;;;;7.70;5.80;;;;;;;17.48;100.00;99333.83;177887;1261;46005;-82
2023/08/29 18:31:05;;;;;;;6.20;5.20;;;;;;;17.48;100.00;99330.20;179044;1260;45079;-82
2023/08/29 18:35:08;;;;;;;6.90;6.10;;;;;;;17.54;100.00;99330.74;178441;1264;46048;-82